Time;durP1;ratioP1;P1;durP2;ratioP2;P2;SDS_P1;SDS_P2;PMS_P1;PMS_P2;Temp;Humidity;BMP_temperature;BMP_pressure;BME280_temperature;BME280_humidity;BME280_pressure;Samples;Min_cycle;Max_cycle;Signal;HPM_P1;HPM_P2
2020/12/18 00:01:31;;;;;;;49.48;26.62;;;;;;;2.85;83.74;101136.22;1748484;82;25948;-58
2020/12/18 00:04:15;;;;;;;50.85;26.55;;;;;;;2.84;83.74;101134.59;1748746;81;25834;-58
2020/12/18 00:06:42;;;;;;;51.25;27.98;;;;;;;2.85;83.78;101134.09;1748718;82;25590;-56
2020/12/18 00:09:09;;;;;;;45.85;25.02;;;;;;;2.84;83.72;101129.24;1748709;82;25659;-55
2020/12/18 00:11:36;;;;;;;46.02;25.90;;;;;;;2.83;83.60;101132.98;1748867;82;26681;-57
2020/12/18 00:14:03;;;;;;;46.88;27.50;;;;;;;2.82;83.69;101127.34;1748673;81;25633;-56
2020/12/18 00:16:32;;;;;;;46.25;27.70;;;;;;;2.82;83.64;101132.69;1748651;82;25648;-59
2020/12/18 00:18:59;;;;;;;46.73;24.73;;;;;;;2.83;83.76;101136.16;1748868;81;25620;-55
2020/12/18 00:21:26;;;;;;;48.10;25.72;;;;;;;2.83;83.77;101141.00;1748896;82;25726;-54
2020/12/18 00:23:52;;;;;;;53.05;27.37;;;;;;;2.83;83.80;101141.50;1748919;82;25708;-53
2020/12/18 00:26:20;;;;;;;50.67;28.20;;;;;;;2.83;83.71;101141.50;1748796;82;25618;-51
2020/12/18 00:28:47;;;;;;;51.50;27.42;;;;;;;2.80;83.68;101140.12;1748869;82;25589;-57
2020/12/18 00:31:15;;;;;;;51.33;27.55;;;;;;;2.79;83.70;101139.33;1748766;81;26439;-57
2020/12/18 00:33:42;;;;;;;54.25;27.85;;;;;;;2.79;83.78;101134.48;1748573;82;25685;-54
2020/12/18 00:36:13;;;;;;;48.68;27.32;;;;;;;2.79;83.80;101141.16;1748804;82;25769;-57
2020/12/18 00:38:40;;;;;;;51.50;27.35;;;;;;;2.79;83.86;101145.17;1748721;81;25819;-55
2020/12/18 00:41:07;;;;;;;51.48;27.90;;;;;;;2.79;83.89;101134.48;1748653;81;25672;-54
2020/12/18 00:43:34;;;;;;;48.90;28.17;;;;;;;2.80;83.93;101139.59;1749734;81;25775;-55
2020/12/18 00:46:04;;;;;;;53.40;28.02;;;;;;;2.82;83.76;101142.56;1752643;81;25775;-52
2020/12/18 00:48:32;;;;;;;49.65;29.20;;;;;;;2.80;83.77;101149.48;1752949;81;26354;-54
2020/12/18 00:50:58;;;;;;;56.40;26.97;;;;;;;2.80;83.77;101145.47;1752643;81;25770;-56
2020/12/18 00:53:25;;;;;;;53.33;27.73;;;;;;;2.79;83.81;101142.50;1752764;81;25624;-54
2020/12/18 00:55:52;;;;;;;49.33;27.58;;;;;;;2.80;83.81;101144.14;1752812;81;25540;-52
2020/12/18 00:58:18;;;;;;;52.27;27.80;;;;;;;2.80;83.76;101142.27;1752865;81;25707;-56
2020/12/18 01:00:45;;;;;;;45.70;25.90;;;;;;;2.80;83.74;101136.13;1752812;81;25869;-56
2020/12/18 01:03:13;;;;;;;48.78;26.80;;;;;;;2.83;83.88;101134.82;1752831;81;25700;-54
2020/12/18 01:05:41;;;;;;;50.48;26.82;;;;;;;2.84;83.82;101139.94;1752851;81;25669;-55
2020/12/18 01:08:07;;;;;;;40.95;24.75;;;;;;;2.85;83.77;101144.77;1752857;81;25775;-56
2020/12/18 01:10:34;;;;;;;37.65;21.30;;;;;;;2.87;83.74;101145.34;1752924;81;25659;-51
2020/12/18 01:13:00;;;;;;;40.08;22.02;;;;;;;2.86;83.34;101143.70;1752785;81;25909;-55
2020/12/18 01:15:27;;;;;;;40.70;21.97;;;;;;;2.83;83.03;101145.51;1752671;81;26379;-54
2020/12/18 01:17:54;;;;;;;42.80;21.62;;;;;;;2.82;83.12;101140.70;1753074;81;25708;-49
2020/12/18 01:20:20;;;;;;;37.55;22.10;;;;;;;2.81;83.19;101140.42;1752344;81;25674;-49
2020/12/18 01:22:47;;;;;;;38.40;20.55;;;;;;;2.80;83.21;101132.92;1753136;81;25739;-47
2020/12/18 01:25:14;;;;;;;35.50;20.30;;;;;;;2.82;83.08;101133.22;1753265;81;25765;-55
2020/12/18 01:27:41;;;;;;;37.80;21.77;;;;;;;2.79;82.92;101135.82;1753050;81;25271;-53
2020/12/18 01:30:08;;;;;;;37.50;21.62;;;;;;;2.76;82.78;101134.98;1753553;81;25681;-51
2020/12/18 01:32:34;;;;;;;37.75;21.00;;;;;;;2.74;82.80;101135.22;1753277;81;26275;-47
2020/12/18 01:35:01;;;;;;;40.88;22.45;;;;;;;2.73;82.88;101138.12;1753387;81;25632;-53
2020/12/18 01:37:27;;;;;;;46.25;24.32;;;;;;;2.73;83.08;101133.58;1753468;81;26154;-56
2020/12/18 01:39:54;;;;;;;41.35;22.75;;;;;;;2.73;82.90;101134.11;1753373;81;25584;-49
2020/12/18 01:42:21;;;;;;;41.98;22.42;;;;;;;2.72;82.93;101124.45;1753393;81;25743;-49
2020/12/18 01:44:48;;;;;;;50.20;25.95;;;;;;;2.72;82.86;101135.14;1750578;81;25659;-55
2020/12/18 01:47:30;;;;;;;46.73;24.65;;;;;;;2.69;82.71;101129.77;1749458;82;25691;-48
2020/12/18 01:49:59;;;;;;;46.50;24.57;;;;;;;2.68;82.89;101127.33;1749422;82;26277;-47
2020/12/18 01:52:26;;;;;;;47.03;25.27;;;;;;;2.70;82.92;101130.57;1749388;82;25681;-52
2020/12/18 01:55:05;;;;;;;52.43;25.82;;;;;;;2.69;82.90;101130.27;1749436;82;25608;-54
2020/12/18 01:57:33;;;;;;;53.05;27.58;;;;;;;2.68;82.82;101121.98;1749544;81;25684;-52
2020/12/18 02:00:00;;;;;;;59.48;28.27;;;;;;;2.68;82.88;101125.99;1749429;81;25696;-52
2020/12/18 02:02:29;;;;;;;58.80;28.92;;;;;;;2.67;82.87;101128.36;1749381;82;25771;-53
2020/12/18 02:04:55;;;;;;;56.77;28.75;;;;;;;2.66;82.77;101124.89;1749337;81;25619;-54
2020/12/18 02:07:26;;;;;;;57.50;29.05;;;;;;;2.65;82.76;101128.59;1749395;82;25624;-54
2020/12/18 02:09:52;;;;;;;65.55;31.00;;;;;;;2.66;82.73;101129.43;1749335;82;26049;-45
2020/12/18 02:12:19;;;;;;;60.90;30.32;;;;;;;2.65;82.61;101127.80;1749265;82;25584;-52
2020/12/18 02:14:53;;;;;;;68.45;31.45;;;;;;;2.64;82.65;101127.49;1749394;82;27124;-52
2020/12/18 02:17:19;;;;;;;66.17;30.60;;;;;;;2.65;82.83;101127.80;1749278;81;25703;-48
2020/12/18 02:19:52;;;;;;;65.62;31.37;;;;;;;2.66;82.85;101126.22;1749400;81;25759;-55
2020/12/18 02:22:24;;;;;;;66.50;29.45;;;;;;;2.66;82.81;101128.89;1749417;82;26278;-47
2020/12/18 02:25:09;;;;;;;64.97;29.75;;;;;;;2.69;82.77;101136.95;1749488;81;25558;-52
2020/12/18 02:27:40;;;;;;;63.95;30.02;;;;;;;2.69;82.68;101136.95;1749510;82;26956;-51
2020/12/18 02:30:09;;;;;;;70.50;32.45;;;;;;;2.70;82.75;101134.58;1749312;82;25644;-48
2020/12/18 02:32:36;;;;;;;75.78;32.88;;;;;;;2.72;82.75;101143.16;1749491;82;25640;-57
2020/12/18 02:35:05;;;;;;;70.62;31.45;;;;;;;2.71;82.67;101142.36;1749379;82;25657;-55
2020/12/18 02:37:33;;;;;;;79.65;34.43;;;;;;;2.71;82.62;101138.35;1749362;81;25659;-54
2020/12/18 02:40:00;;;;;;;65.03;31.15;;;;;;;2.70;82.45;101135.37;1749399;82;26235;-55
2020/12/18 02:42:26;;;;;;;71.62;33.85;;;;;;;2.71;82.59;101140.22;1749434;81;25645;-55
2020/12/18 02:44:53;;;;;;;73.07;33.10;;;;;;;2.70;82.59;101136.72;1749345;81;25808;-56
2020/12/18 02:47:20;;;;;;;73.50;32.03;;;;;;;2.71;82.64;101126.86;1749430;82;25651;-55
2020/12/18 02:49:47;;;;;;;77.87;34.03;;;;;;;2.72;82.56;101137.82;1749400;82;25632;-54
2020/12/18 02:52:13;;;;;;;75.85;32.28;;;;;;;2.70;82.50;101132.70;1749378;82;26928;-54
2020/12/18 02:54:40;;;;;;;74.32;34.08;;;;;;;2.71;82.64;101133.55;1749306;82;25809;-56
2020/12/18 02:57:06;;;;;;;71.42;33.65;;;;;;;2.71;82.54;101135.68;1749369;82;25613;-56
2020/12/18 02:59:33;;;;;;;71.28;32.53;;;;;;;2.70;82.53;101134.05;1749309;82;25817;-48
2020/12/18 03:02:00;;;;;;;79.03;35.45;;;;;;;2.71;82.58;101128.20;1749343;82;25798;-47
2020/12/18 03:04:26;;;;;;;82.30;33.90;;;;;;;2.72;82.68;101131.94;1749344;81;26742;-54
2020/12/18 03:06:53;;;;;;;77.22;34.43;;;;;;;2.71;82.51;101131.67;1749223;82;25692;-49
2020/12/18 03:09:21;;;;;;;78.37;34.85;;;;;;;2.72;82.58;101126.59;1749332;82;25591;-52
2020/12/18 03:11:48;;;;;;;75.03;34.35;;;;;;;2.71;82.54;101123.66;1749399;82;25673;-48
2020/12/18 03:14:14;;;;;;;72.25;31.97;;;;;;;2.70;82.49;101119.35;1749363;82;25695;-49
2020/12/18 03:16:41;;;;;;;82.78;36.20;;;;;;;2.68;82.62;101116.11;1749370;82;27258;-54
2020/12/18 03:19:07;;;;;;;76.72;33.60;;;;;;;2.70;82.67;101121.22;1749285;82;25636;-56
2020/12/18 03:21:34;;;;;;;76.05;34.23;;;;;;;2.69;82.68;101124.42;1749379;82;25626;-55
2020/12/18 03:24:01;;;;;;;72.82;35.25;;;;;;;2.70;82.73;101126.03;1749260;82;25647;-52
2020/12/18 03:26:27;;;;;;;69.65;32.70;;;;;;;2.70;82.79;101125.23;1749395;82;25696;-54
2020/12/18 03:28:54;;;;;;;75.87;35.38;;;;;;;2.68;82.79;101118.78;1749330;82;26229;-47
2020/12/18 03:31:21;;;;;;;78.57;34.65;;;;;;;2.68;82.90;101124.13;1749279;81;25576;-56
2020/12/18 03:33:47;;;;;;;79.40;35.80;;;;;;;2.68;82.90;101132.14;1749273;82;25573;-54
2020/12/18 03:36:14;;;;;;;73.00;34.88;;;;;;;2.67;83.07;101131.03;1749261;82;25589;-55
2020/12/18 03:38:40;;;;;;;79.03;34.92;;;;;;;2.66;83.12;101134.23;1749405;82;25623;-57
2020/12/18 03:41:07;;;;;;;80.47;35.70;;;;;;;2.63;83.14;101126.69;1749383;82;26129;-55
2020/12/18 03:43:36;;;;;;;71.53;33.80;;;;;;;2.61;83.27;101130.12;1749233;82;25639;-56
2020/12/18 03:46:02;;;;;;;76.30;35.00;;;;;;;2.58;83.33;101130.05;1749279;80;25566;-57
2020/12/18 03:48:29;;;;;;;79.10;34.78;;;;;;;2.56;83.41;101125.48;1749255;82;25673;-57
2020/12/18 03:50:56;;;;;;;78.85;36.58;;;;;;;2.56;83.59;101123.34;1749361;82;25711;-56
2020/12/18 03:53:22;;;;;;;76.82;35.75;;;;;;;2.57;83.77;101128.45;1749315;81;26166;-56
2020/12/18 03:55:49;;;;;;;79.35;36.05;;;;;;;2.57;83.86;101125.78;1749396;81;25612;-53
2020/12/18 03:58:15;;;;;;;79.80;34.83;;;;;;;2.57;83.90;101125.78;1749449;82;25584;-56
2020/12/18 04:00:42;;;;;;;76.45;36.15;;;;;;;2.55;83.91;101124.38;1749457;82;25645;-55
2020/12/18 04:03:09;;;;;;;73.55;34.95;;;;;;;2.54;84.00;101125.44;1749478;81;25644;-54
2020/12/18 04:05:35;;;;;;;82.53;36.10;;;;;;;2.54;84.06;101126.78;1749599;82;26351;-53
2020/12/18 04:08:02;;;;;;;87.75;37.28;;;;;;;2.52;84.18;101125.67;1749358;82;25732;-47
2020/12/18 04:10:29;;;;;;;85.35;38.45;;;;;;;2.49;84.22;101118.13;1749429;82;25701;-54
2020/12/18 04:12:55;;;;;;;81.37;37.63;;;;;;;2.48;84.42;101116.48;1749395;82;25616;-55
2020/12/18 04:15:22;;;;;;;82.17;36.53;;;;;;;2.45;84.43;101109.47;1749502;82;25607;-53
2020/12/18 04:17:48;;;;;;;82.72;38.75;;;;;;;2.44;84.74;101106.00;1749390;82;26329;-55
2020/12/18 04:20:15;;;;;;;81.80;37.00;;;;;;;2.43;84.77;101113.20;1749398;82;25692;-50
2020/12/18 04:22:42;;;;;;;81.87;37.38;;;;;;;2.44;84.83;101115.34;1749460;82;25639;-52
2020/12/18 04:25:09;;;;;;;83.35;36.40;;;;;;;2.45;84.94;101127.63;1749406;82;25793;-50
2020/12/18 04:27:36;;;;;;;83.37;37.30;;;;;;;2.44;84.94;101127.36;1749527;81;25624;-47
2020/12/18 04:30:04;;;;;;;86.22;37.10;;;;;;;2.45;85.00;101130.83;1749627;82;27375;-54
2020/12/18 04:32:31;;;;;;;85.15;38.35;;;;;;;2.45;85.09;101131.64;1749326;82;25649;-54
2020/12/18 04:34:59;;;;;;;90.10;38.73;;;;;;;2.46;85.07;101139.14;1749435;82;25613;-53
2020/12/18 04:37:26;;;;;;;83.97;37.30;;;;;;;2.47;85.23;101140.25;1749466;81;25667;-54
2020/12/18 04:39:55;;;;;;;82.25;37.05;;;;;;;2.48;85.28;101141.86;1749418;81;25640;-53
2020/12/18 04:42:21;;;;;;;85.53;38.58;;;;;;;2.48;85.25;101137.85;1749411;81;27063;-48
2020/12/18 04:44:48;;;;;;;80.03;36.70;;;;;;;2.51;85.32;101142.73;1750053;81;25619;-51
2020/12/18 04:47:15;;;;;;;81.00;36.38;;;;;;;2.52;85.29;101140.36;1753430;81;25810;-48
2020/12/18 04:49:42;;;;;;;86.28;38.60;;;;;;;2.54;85.26;101144.94;1753530;81;25675;-52
2020/12/18 04:52:12;;;;;;;81.63;36.20;;;;;;;2.55;85.33;101144.41;1753547;81;25620;-48
2020/12/18 04:54:44;;;;;;;78.75;39.23;;;;;;;2.54;85.29;101144.14;1753419;81;25688;-51
2020/12/18 04:57:15;;;;;;;83.55;39.05;;;;;;;2.53;85.31;101131.81;1725950;81;25683;-56
2020/12/18 04:59:43;;;;;;;90.77;37.55;;;;;;;2.54;85.32;101130.78;1753527;81;25637;-54
2020/12/18 05:02:10;;;;;;;84.70;40.12;;;;;;;2.53;85.33;101123.27;1753416;81;25612;-57
2020/12/18 05:04:40;;;;;;;88.15;39.23;;;;;;;2.53;85.39;101131.81;1753512;81;25616;-54
2020/12/18 05:07:07;;;;;;;82.75;36.65;;;;;;;2.51;85.42;101131.24;1753383;81;26789;-53
2020/12/18 05:09:35;;;;;;;81.10;38.53;;;;;;;2.51;85.50;101132.58;1753381;81;25649;-56
2020/12/18 05:12:07;;;;;;;91.37;40.80;;;;;;;2.50;85.52;101134.42;1753388;81;25601;-55
2020/12/18 05:14:35;;;;;;;87.20;38.60;;;;;;;2.53;85.70;101134.48;1753454;81;25589;-53
2020/12/18 05:17:09;;;;;;;84.35;37.33;;;;;;;2.52;85.68;101143.03;1753474;81;25688;-54
2020/12/18 05:19:39;;;;;;;84.42;37.88;;;;;;;2.52;85.70;101137.69;1753519;81;25775;-53
2020/12/18 05:22:09;;;;;;;91.78;39.73;;;;;;;2.54;85.72;101145.47;1753143;81;25640;-53
2020/12/18 05:24:38;;;;;;;78.05;38.35;;;;;;;2.56;85.83;101147.38;1753599;81;25607;-50
2020/12/18 05:27:06;;;;;;;88.10;40.90;;;;;;;2.57;85.83;101139.13;1753646;81;25572;-54
2020/12/18 05:29:38;;;;;;;82.08;36.15;;;;;;;2.58;85.78;101138.07;1753422;81;25611;-56
2020/12/18 05:32:05;;;;;;;84.00;38.50;;;;;;;2.61;85.86;101146.16;1753404;81;25915;-53
2020/12/18 05:34:31;;;;;;;83.25;37.25;;;;;;;2.65;85.93;101146.49;1753328;81;25687;-54
2020/12/18 05:37:01;;;;;;;90.00;39.48;;;;;;;2.66;85.89;101145.45;1753366;81;25670;-54
2020/12/18 05:39:28;;;;;;;86.82;40.12;;;;;;;2.65;85.73;101149.16;1753562;81;25794;-54
2020/12/18 05:41:58;;;;;;;86.32;39.50;;;;;;;2.65;85.80;101154.50;1753453;81;25640;-51
2020/12/18 05:44:26;;;;;;;86.92;38.90;;;;;;;2.64;85.75;101147.53;1753103;81;26912;-53
2020/12/18 05:47:09;;;;;;;84.20;38.73;;;;;;;2.64;85.81;101156.88;1753281;81;25634;-48
2020/12/18 05:49:39;;;;;;;91.20;38.28;;;;;;;2.64;85.79;101164.89;1753385;81;25669;-55
2020/12/18 05:52:08;;;;;;;82.10;38.65;;;;;;;2.64;85.91;101168.89;1753349;81;25726;-54
2020/12/18 05:54:37;;;;;;;90.87;41.20;;;;;;;2.65;85.89;101166.53;1753587;81;25708;-54
2020/12/18 05:57:15;;;;;;;84.62;38.92;;;;;;;2.65;85.94;101155.84;1753314;81;32783;-50
2020/12/18 05:59:47;;;;;;;80.10;37.85;;;;;;;2.64;85.82;101166.23;1753314;81;25616;-47
2020/12/18 06:02:17;;;;;;;85.28;38.48;;;;;;;2.61;85.79;101173.67;1753413;81;25645;-54
2020/12/18 06:04:46;;;;;;;88.12;38.75;;;;;;;2.60;85.87;101174.70;1752192;81;25709;-55
2020/12/18 06:07:16;;;;;;;86.30;39.75;;;;;;;2.63;85.94;101176.64;1753372;81;25692;-53
2020/12/18 06:09:42;;;;;;;83.50;39.38;;;;;;;2.65;86.04;101179.88;1753393;81;26196;-49
2020/12/18 06:12:12;;;;;;;83.07;35.20;;;;;;;2.67;86.09;101180.45;1753362;81;25660;-53
2020/12/18 06:14:41;;;;;;;88.17;39.53;;;;;;;2.69;86.09;101181.86;1753404;81;25635;-52
2020/12/18 06:17:11;;;;;;;84.80;37.35;;;;;;;2.72;86.13;101180.56;1753525;81;25707;-47
2020/12/18 06:19:43;;;;;;;80.28;39.08;;;;;;;2.74;86.13;101175.80;1753461;81;25741;-49
2020/12/18 06:22:13;;;;;;;83.27;38.55;;;;;;;2.74;85.98;101177.96;1753343;81;25764;-53
2020/12/18 06:24:44;;;;;;;77.05;37.42;;;;;;;2.75;86.02;101173.42;1751827;81;25604;-53
2020/12/18 06:27:16;;;;;;;76.62;36.05;;;;;;;2.74;85.87;101181.13;1750664;81;25724;-51
2020/12/18 06:29:45;;;;;;;82.95;37.90;;;;;;;2.72;85.88;101176.02;1749742;81;25610;-54
2020/12/18 06:32:29;;;;;;;81.17;37.08;;;;;;;2.73;85.94;101180.86;1750087;81;25699;-51
2020/12/18 06:35:18;;;;;;;80.55;40.05;;;;;;;2.73;86.07;101189.69;1749635;81;26360;-52
2020/12/18 06:37:45;;;;;;;81.17;37.42;;;;;;;2.74;86.05;101185.14;1740562;81;26344;-52
2020/12/18 06:40:28;;;;;;;77.85;36.83;;;;;;;2.75;86.12;101190.79;1750115;81;25602;-54
2020/12/18 06:42:56;;;;;;;76.50;37.55;;;;;;;2.77;86.23;101204.19;1750164;81;25671;-54
2020/12/18 06:45:23;;;;;;;82.80;38.02;;;;;;;2.76;86.20;101205.78;1750424;81;25660;-52
2020/12/18 06:47:51;;;;;;;85.42;40.78;;;;;;;2.77;86.22;101207.39;1753314;81;26443;-53
2020/12/18 06:50:19;;;;;;;81.25;38.55;;;;;;;2.79;86.26;101210.64;1753227;81;25611;-48
2020/12/18 06:52:57;;;;;;;83.37;37.65;;;;;;;2.82;86.33;101216.05;1753311;81;25649;-55
2020/12/18 06:55:32;;;;;;;85.00;38.55;;;;;;;2.84;86.33;101217.42;1753252;81;25676;-51
2020/12/18 06:58:13;;;;;;;84.42;37.08;;;;;;;2.85;86.30;101214.25;1764897;80;25720;-56
2020/12/18 07:01:00;;;;;;;84.87;38.78;;;;;;;2.88;86.43;101214.59;1764387;80;27133;-55
2020/12/18 07:03:42;;;;;;;81.80;37.20;;;;;;;2.92;86.50;101218.41;1758952;81;25758;-53
2020/12/18 07:06:31;;;;;;;74.82;36.53;;;;;;;2.94;86.45;101217.64;1759045;81;25629;-55
2020/12/18 07:08:58;;;;;;;85.87;37.53;;;;;;;2.97;86.38;101228.40;1734458;81;25619;-56
2020/12/18 07:11:29;;;;;;;83.90;38.78;;;;;;;2.98;86.42;101229.50;1759028;81;25726;-56
2020/12/18 07:13:59;;;;;;;81.67;36.33;;;;;;;3.01;86.47;101228.73;1733113;81;25692;-58
2020/12/18 07:16:26;;;;;;;75.57;36.73;;;;;;;3.04;86.47;101229.61;1758449;81;25821;-56
2020/12/18 07:19:03;;;;;;;92.05;38.75;;;;;;;3.06;86.50;101230.98;1758513;81;25667;-57
2020/12/18 07:21:29;;;;;;;84.70;36.60;;;;;;;3.08;86.52;101236.94;1758472;81;25621;-57
2020/12/18 07:23:56;;;;;;;83.25;36.17;;;;;;;3.11;86.60;101235.63;1743901;80;27274;-56
2020/12/18 07:26:23;;;;;;;77.37;34.20;;;;;;;3.14;86.62;101248.53;1760906;80;25782;-60
2020/12/18 07:28:49;;;;;;;86.28;37.83;;;;;;;3.15;86.62;101248.30;1756454;80;25793;-61
2020/12/18 07:31:25;;;;;;;88.15;36.75;;;;;;;3.18;86.64;101239.81;1757757;80;25663;-59
2020/12/18 07:33:55;;;;;;;88.60;38.13;;;;;;;3.22;86.71;101246.00;1723753;83;25691;-60
2020/12/18 07:36:26;;;;;;;90.67;36.58;;;;;;;3.25;86.78;101238.34;1723771;83;26028;-58
2020/12/18 07:38:57;;;;;;;80.70;35.17;;;;;;;3.28;86.77;101245.88;1723648;83;25949;-57
2020/12/18 07:41:24;;;;;;;89.87;37.38;;;;;;;3.32;86.83;101243.03;1723285;83;53706;-60
2020/12/18 07:43:51;;;;;;;79.42;35.08;;;;;;;3.35;86.81;101243.91;1723710;83;26392;-60
2020/12/18 07:46:19;;;;;;;85.28;37.13;;;;;;;3.39;86.77;101246.08;1719069;82;25752;-61
2020/12/18 07:48:47;;;;;;;84.97;37.03;;;;;;;3.41;86.88;101249.35;1710704;83;25704;-61
2020/12/18 07:51:20;;;;;;;88.78;36.75;;;;;;;3.42;86.85;101256.30;1710672;83;27108;-61
2020/12/18 07:53:55;;;;;;;83.05;36.77;;;;;;;3.48;86.92;101263.39;1710706;83;25597;-58
2020/12/18 07:56:23;;;;;;;86.17;37.85;;;;;;;3.50;86.89;101257.27;1710807;83;25634;-60
2020/12/18 07:59:08;;;;;;;84.85;36.23;;;;;;;3.52;86.99;101258.67;1710689;83;26288;-59
2020/12/18 08:01:37;;;;;;;85.50;36.40;;;;;;;3.56;86.94;101260.34;1710783;83;25711;-58
2020/12/18 08:04:12;;;;;;;94.13;38.28;;;;;;;3.61;86.95;101264.45;1710818;83;26767;-63
2020/12/18 08:06:40;;;;;;;89.25;39.92;;;;;;;3.65;87.02;101264.79;1710742;83;25724;-59
2020/12/18 08:09:11;;;;;;;79.30;35.88;;;;;;;3.68;86.98;101266.46;1763126;80;25758;-61
2020/12/18 08:11:45;;;;;;;90.50;36.80;;;;;;;3.69;86.89;101261.38;1770518;80;25275;-60
2020/12/18 08:14:12;;;;;;;80.03;35.88;;;;;;;3.73;86.91;101267.09;1769585;80;25642;-60
2020/12/18 08:16:40;;;;;;;79.53;34.78;;;;;;;3.77;86.94;101267.42;1770288;80;25718;-58
2020/12/18 08:19:12;;;;;;;87.37;38.35;;;;;;;3.80;86.96;101273.61;1771631;80;25756;-55
2020/12/18 08:21:46;;;;;;;80.10;36.08;;;;;;;3.84;86.97;101278.78;1771804;80;25821;-56
2020/12/18 08:24:34;;;;;;;82.70;36.45;;;;;;;3.88;86.99;101282.09;1768673;78;31066;-58
2020/12/18 08:27:06;;;;;;;79.50;35.03;;;;;;;3.93;86.97;101286.70;1771708;80;25676;-55
2020/12/18 08:29:39;;;;;;;85.25;36.20;;;;;;;3.97;86.89;101279.84;1771869;80;25749;-54
2020/12/18 08:32:09;;;;;;;79.53;35.85;;;;;;;4.01;86.85;101285.52;1771678;80;25626;-56
2020/12/18 08:34:36;;;;;;;79.92;36.05;;;;;;;4.03;86.79;101280.19;1771627;80;26292;-57
2020/12/18 08:37:03;;;;;;;83.05;36.40;;;;;;;4.07;86.87;101283.20;1771652;80;26129;-57
2020/12/18 08:39:32;;;;;;;83.35;36.65;;;;;;;4.10;86.83;101288.91;1761077;80;25716;-57
2020/12/18 08:42:00;;;;;;;75.55;34.43;;;;;;;4.15;86.79;101289.50;1739897;82;25717;-58
2020/12/18 08:44:40;;;;;;;77.82;35.17;;;;;;;4.18;86.83;101286.34;1740261;82;25924;-56
2020/12/18 08:47:25;;;;;;;73.97;35.65;;;;;;;4.22;86.71;101288.84;1739014;81;25747;-56
2020/12/18 08:49:55;;;;;;;75.50;33.88;;;;;;;4.25;86.72;101303.07;1738676;82;25696;-58
2020/12/18 08:52:25;;;;;;;;;;;;;;;4.28;86.70;101297.23;1737800;82;25619;-57
2020/12/18 08:55:06;;;;;;;70.22;33.83;;;;;;;4.30;86.67;101298.34;1737962;82;26179;-56
2020/12/18 08:57:37;;;;;;;80.42;34.13;;;;;;;4.34;86.79;101294.11;1738846;82;25668;-55
2020/12/18 09:00:18;;;;;;;75.47;34.35;;;;;;;4.36;86.66;101287.17;1766095;80;25669;-57
2020/12/18 09:05:34;;;;;;;71.35;33.65;;;;;;;4.45;86.75;101277.16;1886951;76;35156;-55
2020/12/18 09:08:10;;;;;;;70.78;34.73;;;;;;;4.48;86.70;101287.39;1857913;77;25631;-56
2020/12/18 09:10:51;;;;;;;69.77;32.42;;;;;;;4.53;86.61;101292.53;1854212;77;25769;-57
2020/12/18 09:13:30;;;;;;;68.78;31.80;;;;;;;4.53;86.40;101292.03;1857731;77;25691;-57
2020/12/18 09:16:10;;;;;;;73.47;33.05;;;;;;;4.56;86.61;101292.86;1857569;77;25627;-58
2020/12/18 09:18:38;;;;;;;63.13;31.07;;;;;;;4.61;86.57;101282.75;1865270;76;25668;-58
2020/12/18 09:21:13;;;;;;;79.10;34.08;;;;;;;4.62;86.49;101287.06;1869251;76;25668;-60
2020/12/18 09:23:42;;;;;;;73.07;33.53;;;;;;;4.64;86.53;101295.13;1864364;76;25763;-58
2020/12/18 09:26:09;;;;;;;77.10;34.10;;;;;;;4.70;86.72;101289.84;1835651;76;25724;-58
2020/12/18 09:28:41;;;;;;;79.40;34.53;;;;;;;4.75;86.61;101292.61;1838600;78;25644;-57
2020/12/18 09:31:09;;;;;;;87.10;37.15;;;;;;;4.77;86.56;101294.53;1838503;78;25645;-56
2020/12/18 09:33:37;;;;;;;82.78;34.90;;;;;;;4.79;86.41;101297.23;1838708;78;25962;-50
2020/12/18 09:36:10;;;;;;;78.40;34.13;;;;;;;4.80;86.42;101297.53;1838608;78;26659;-57
2020/12/18 09:38:47;;;;;;;81.28;35.48;;;;;;;4.80;86.27;101298.88;1838579;78;25712;-57
2020/12/18 09:41:18;;;;;;;81.87;37.42;;;;;;;4.83;86.47;101300.23;1838513;78;25675;-58
2020/12/18 09:43:46;;;;;;;82.22;35.28;;;;;;;4.86;86.55;101291.71;1838299;78;25689;-57
2020/12/18 09:46:13;;;;;;;84.03;36.90;;;;;;;4.89;86.41;101293.91;1838505;78;25780;-57
2020/12/18 09:48:41;;;;;;;88.33;37.50;;;;;;;4.93;86.47;101292.88;1838561;78;25707;-58
2020/12/18 09:51:08;;;;;;;83.67;36.10;;;;;;;4.94;86.33;101296.66;1833846;77;25561;-58
2020/12/18 09:53:35;;;;;;;93.90;38.15;;;;;;;4.97;86.36;101296.17;1847031;77;25642;-57
2020/12/18 09:56:02;;;;;;;91.15;37.48;;;;;;;4.96;86.16;101296.41;1835172;77;25660;-57
2020/12/18 09:58:29;;;;;;;93.50;39.48;;;;;;;4.96;86.15;101301.78;1800538;78;25641;-60
2020/12/18 10:00:56;;;;;;;95.10;39.35;;;;;;;4.96;86.25;101300.44;1801815;77;27357;-59
2020/12/18 10:03:23;;;;;;;89.87;38.88;;;;;;;4.97;86.15;101307.41;1796358;79;25806;-58
2020/12/18 10:05:49;;;;;;;91.45;39.13;;;;;;;4.96;86.19;101304.45;1796578;79;25647;-60
2020/12/18 10:08:16;;;;;;;88.50;37.83;;;;;;;4.98;86.21;101309.04;1796582;79;25697;-58
2020/12/18 10:10:43;;;;;;;88.15;38.40;;;;;;;5.01;86.36;101313.38;1796565;79;26383;-61
2020/12/18 10:13:10;;;;;;;86.87;38.00;;;;;;;5.04;86.30;101315.58;1796448;79;26347;-57
2020/12/18 10:15:36;;;;;;;83.62;37.42;;;;;;;5.08;86.30;101306.50;1796222;79;25618;-58
2020/12/18 10:18:03;;;;;;;86.70;38.17;;;;;;;5.11;86.36;101304.67;1796068;79;25567;-61
2020/12/18 10:20:30;;;;;;;88.35;38.25;;;;;;;5.17;86.27;101298.84;1795894;79;25741;-59
2020/12/18 10:22:57;;;;;;;85.75;37.17;;;;;;;5.16;86.11;101302.06;1796134;79;25493;-59
2020/12/18 10:25:24;;;;;;;87.47;37.48;;;;;;;5.16;85.95;101298.03;1776483;79;25687;-61
2020/12/18 10:27:51;;;;;;;89.13;39.30;;;;;;;5.18;85.98;101297.25;1763625;81;26216;-60
2020/12/18 10:30:17;;;;;;;81.63;37.63;;;;;;;5.19;86.04;101293.52;1735752;81;25667;-67
2020/12/18 10:32:45;;;;;;;79.82;38.63;;;;;;;5.23;86.06;101301.34;1763560;81;25702;-70
2020/12/18 10:35:12;;;;;;;82.22;35.78;;;;;;;5.27;86.02;101302.19;1768827;79;25671;-71
2020/12/18 10:37:39;;;;;;;83.90;37.00;;;;;;;5.29;86.04;101306.77;1785691;79;26312;-65
2020/12/18 10:40:07;;;;;;;79.70;35.98;;;;;;;5.28;85.82;101303.29;1784981;79;25624;-68
2020/12/18 10:42:33;;;;;;;79.32;36.73;;;;;;;5.32;85.80;101310.31;1785112;80;25677;-64
2020/12/18 10:45:00;;;;;;;80.17;36.55;;;;;;;5.33;85.93;101312.74;1785077;80;25774;-65
2020/12/18 10:47:27;;;;;;;76.50;35.43;;;;;;;5.40;86.08;101313.91;1785031;79;25711;-58
2020/12/18 10:49:54;;;;;;;82.70;37.73;;;;;;;5.43;86.07;101315.55;1784969;80;25703;-59
2020/12/18 10:52:21;;;;;;;79.32;35.50;;;;;;;5.45;85.66;101311.28;1784993;80;25702;-62
2020/12/18 10:54:48;;;;;;;81.45;37.35;;;;;;;5.43;85.56;101310.70;1785101;79;25635;-65
2020/12/18 10:57:14;;;;;;;77.05;36.85;;;;;;;5.42;85.50;101313.92;1784973;80;25589;-63
2020/12/18 10:59:41;;;;;;;81.05;39.33;;;;;;;5.39;85.38;101309.05;1785065;79;25664;-58
2020/12/18 11:02:08;;;;;;;74.03;37.05;;;;;;;5.41;85.54;101308.80;1799397;79;26439;-57
2020/12/18 11:04:35;;;;;;;86.08;39.67;;;;;;;5.41;85.44;101304.27;1785577;79;25667;-56
2020/12/18 11:07:02;;;;;;;80.35;36.45;;;;;;;5.42;85.51;101308.55;1755829;80;25740;-57
2020/12/18 11:09:29;;;;;;;83.30;39.03;;;;;;;5.42;85.55;101304.53;1755898;80;25779;-56
2020/12/18 11:11:57;;;;;;;75.15;37.05;;;;;;;5.46;85.70;101302.70;1755739;80;25813;-57
2020/12/18 11:14:24;;;;;;;77.72;36.65;;;;;;;5.49;85.74;101303.00;1755958;80;25899;-56
2020/12/18 11:16:54;;;;;;;82.82;37.88;;;;;;;5.54;85.74;101307.63;1755802;80;26095;-57
2020/12/18 11:19:24;;;;;;;76.60;38.70;;;;;;;5.56;85.36;101308.19;1755858;80;25760;-58
2020/12/18 11:21:52;;;;;;;79.03;39.20;;;;;;;5.53;85.34;101306.80;1781470;79;25823;-56
2020/12/18 11:24:19;;;;;;;77.42;37.42;;;;;;;5.52;85.25;101303.05;1785164;79;25729;-58
2020/12/18 11:26:53;;;;;;;80.50;38.92;;;;;;;5.54;85.34;101306.29;1788321;78;26153;-55
2020/12/18 11:29:21;;;;;;;79.45;38.23;;;;;;;5.54;85.39;101304.95;1784897;80;26496;-55